Time;durP1;ratioP1;P1;durP2;ratioP2;P2;SDS_P1;SDS_P2;PMS_P1;PMS_P2;Temp;Humidity;BMP_temperature;BMP_pressure;BME280_temperature;BME280_humidity;BME280_pressure;Samples;Min_cycle;Max_cycle;Signal;HPM_P1;HPM_P2
2022/10/17 00:01:45;;;;;;;;;;;13.90;95.50;;;;;;4988645;28;20049;-67
2022/10/17 00:04:10;;;;;;;;;;;13.90;95.40;;;;;;4990391;28;19967;-66
2022/10/17 00:06:36;;;;;;;;;;;13.90;95.50;;;;;;4988394;28;20283;-67
2022/10/17 00:09:02;;;;;;;;;;;14.00;95.50;;;;;;4988768;28;20014;-68
2022/10/17 00:11:27;;;;;;;;;;;14.00;95.50;;;;;;5001288;28;19910;-67
2022/10/17 00:13:53;;;;;;;;;;;14.00;95.50;;;;;;5000592;28;19921;-67
2022/10/17 00:16:37;;;;;;;;;;;14.00;95.50;;;;;;4987947;28;20330;-67
2022/10/17 00:19:03;;;;;;;;;;;14.00;95.40;;;;;;4988424;28;19996;-67
2022/10/17 00:21:29;;;;;;;;;;;13.90;95.40;;;;;;4987783;28;19953;-67
2022/10/17 00:23:54;;;;;;;;;;;13.90;95.40;;;;;;4986952;28;19945;-67
2022/10/17 00:26:20;;;;;;;;;;;13.90;95.40;;;;;;4996319;28;19963;-67
2022/10/17 00:28:46;;;;;;;;;;;13.90;95.40;;;;;;5004992;28;20360;-67
2022/10/17 00:31:12;;;;;;;;;;;14.00;95.40;;;;;;5003658;28;19917;-67
2022/10/17 00:33:38;;;;;;;;;;;14.00;95.40;;;;;;4991794;28;19910;-67
2022/10/17 00:36:12;;;;;;;;;;;14.00;95.40;;;;;;4988237;28;19928;-67
2022/10/17 00:38:38;;;;;;;;;;;13.90;95.30;;;;;;4988391;28;19917;-66
2022/10/17 00:41:04;;;;;;;;;;;13.90;95.40;;;;;;4992437;28;19923;-67
2022/10/17 00:43:47;;;;;;;;;;;13.90;95.30;;;;;;4987192;28;19921;-66
2022/10/17 00:46:12;;;;;;;;;;;13.90;95.30;;;;;;4996133;28;19925;-67
2022/10/17 00:48:38;;;;;;;;;;;14.00;95.40;;;;;;4997950;28;19910;-67
2022/10/17 00:51:04;;;;;;;;;;;14.00;95.40;;;;;;4989501;28;19984;-67
2022/10/17 00:53:29;;;;;;;;;;;14.00;95.40;;;;;;4994664;28;19929;-67
2022/10/17 00:55:54;;;;;;;;;;;13.90;95.30;;;;;;4996077;28;19918;-66
2022/10/17 00:58:20;;;;;;;;;;;14.00;95.30;;;;;;5005320;28;19952;-67
2022/10/17 01:00:46;;;;;;;;;;;13.90;95.30;;;;;;5004299;28;19913;-67
2022/10/17 01:03:12;;;;;;;;;;;14.00;95.30;;;;;;4996519;28;19957;-67
2022/10/17 01:05:38;;;;;;;;;;;14.00;95.30;;;;;;4986847;28;20046;-67
2022/10/17 01:08:04;;;;;;;;;;;14.00;95.30;;;;;;4992068;28;19924;-67
2022/10/17 01:10:48;;;;;;;;;;;14.00;95.30;;;;;;4986918;28;19921;-67
2022/10/17 01:13:34;;;;;;;;;;;14.00;95.30;;;;;;4998556;28;19979;-67
2022/10/17 01:16:12;;;;;;;;;;;14.00;95.30;;;;;;4985475;28;19925;-67
2022/10/17 01:18:47;;;;;;;;;;;14.00;95.30;;;;;;4982542;28;19915;-66
2022/10/17 01:21:32;;;;;;;;;;;14.00;95.30;;;;;;4986785;28;20076;-67
2022/10/17 01:23:58;;;;;;;;;;;14.00;95.30;;;;;;4986094;28;19991;-67
2022/10/17 01:26:42;;;;;;;;;;;14.00;95.20;;;;;;4991056;28;20426;-67
2022/10/17 01:29:26;;;;;;;;;;;14.00;95.30;;;;;;5005523;28;20007;-67
2022/10/17 01:31:57;;;;;;;;;;;14.00;95.30;;;;;;4983017;28;19913;-68
2022/10/17 01:34:29;;;;;;;;;;;14.00;95.30;;;;;;4986638;28;19968;-67
2022/10/17 01:36:59;;;;;;;;;;;14.00;95.30;;;;;;4992456;28;19921;-67
2022/10/17 01:39:40;;;;;;;;;;;14.00;95.30;;;;;;4993149;28;19914;-67
2022/10/17 01:42:10;;;;;;;;;;;14.00;95.30;;;;;;4998363;28;20667;-67
2022/10/17 01:44:44;;;;;;;;;;;14.00;95.30;;;;;;4990146;28;19914;-67
2022/10/17 01:47:12;;;;;;;;;;;14.00;95.20;;;;;;5001120;28;19918;-67
2022/10/17 01:49:38;;;;;;;;;;;14.00;95.20;;;;;;4989003;28;19910;-66
2022/10/17 01:52:06;;;;;;;;;;;14.00;95.20;;;;;;4986593;28;20005;-67
2022/10/17 01:54:42;;;;;;;;;;;14.00;95.20;;;;;;4997982;28;19918;-66
2022/10/17 01:57:10;;;;;;;;;;;14.00;95.20;;;;;;5005033;28;19996;-67
2022/10/17 01:59:40;;;;;;;;;;;14.00;95.20;;;;;;4998863;28;19920;-67
2022/10/17 02:02:06;;;;;;;;;;;14.00;95.20;;;;;;4983726;28;19917;-68
2022/10/17 02:04:32;;;;;;;;;;;14.00;95.20;;;;;;4993678;28;19914;-67
2022/10/17 02:07:04;;;;;;;;;;;14.00;95.20;;;;;;5004861;28;19913;-67
2022/10/17 02:09:30;;;;;;;;;;;14.00;95.20;;;;;;5005174;28;19961;-67
2022/10/17 02:12:11;;;;;;;;;;;14.00;95.30;;;;;;4984565;28;19949;-67
2022/10/17 02:14:45;;;;;;;;;;;14.00;95.30;;;;;;4986154;28;20522;-67
2022/10/17 02:17:19;;;;;;;;;;;14.00;95.30;;;;;;4985888;28;20381;-66
2022/10/17 02:19:54;;;;;;;;;;;14.00;95.20;;;;;;4995202;28;19925;-67
2022/10/17 02:22:22;;;;;;;;;;;14.00;95.30;;;;;;4986570;28;20333;-67
2022/10/17 02:24:56;;;;;;;;;;;14.00;95.20;;;;;;4986629;28;19925;-67
2022/10/17 02:27:25;;;;;;;;;;;14.00;95.20;;;;;;4985621;28;19968;-67
2022/10/17 02:30:05;;;;;;;;;;;14.00;95.20;;;;;;4994068;28;19910;-67
2022/10/17 02:32:48;;;;;;;;;;;14.00;95.20;;;;;;4991074;28;19926;-67
2022/10/17 02:35:14;;;;;;;;;;;14.00;95.20;;;;;;4996781;28;19928;-67
2022/10/17 02:37:40;;;;;;;;;;;14.00;95.50;;;;;;4985735;28;19918;-67
2022/10/17 02:40:07;;;;;;;;;;;14.00;95.20;;;;;;4986780;28;19925;-67
2022/10/17 02:42:33;;;;;;;;;;;14.00;95.20;;;;;;4990335;28;20061;-67
2022/10/17 02:45:00;;;;;;;;;;;14.00;95.20;;;;;;4985863;28;19918;-67
2022/10/17 02:47:32;;;;;;;;;;;14.00;95.20;;;;;;4990808;28;19944;-66
2022/10/17 02:49:57;;;;;;;;;;;14.00;95.30;;;;;;4989273;28;19925;-66
2022/10/17 02:52:23;;;;;;;;;;;14.00;95.20;;;;;;4990305;28;19918;-66
2022/10/17 02:54:55;;;;;;;;;;;14.00;95.20;;;;;;4984144;28;20024;-67
2022/10/17 02:57:27;;;;;;;;;;;14.10;95.20;;;;;;4985236;28;19968;-67
2022/10/17 02:59:54;;;;;;;;;;;14.00;95.30;;;;;;4989870;28;19972;-66
2022/10/17 03:02:19;;;;;;;;;;;14.00;95.30;;;;;;5001214;28;19948;-67
2022/10/17 03:04:45;;;;;;;;;;;14.00;95.30;;;;;;4990067;28;19914;-67
2022/10/17 03:07:11;;;;;;;;;;;14.00;95.20;;;;;;4990041;28;19918;-67
2022/10/17 03:09:36;;;;;;;;;;;14.00;95.20;;;;;;5005368;28;19921;-67
2022/10/17 03:12:02;;;;;;;;;;;14.00;95.20;;;;;;4991006;28;20024;-67
2022/10/17 03:14:27;;;;;;;;;;;14.00;95.20;;;;;;4991286;28;19917;-67
2022/10/17 03:16:53;;;;;;;;;;;14.00;95.20;;;;;;4991649;28;19926;-66
2022/10/17 03:19:18;;;;;;;;;;;14.00;95.30;;;;;;4990065;28;19932;-66
2022/10/17 03:21:44;;;;;;;;;;;14.00;95.30;;;;;;4991393;28;19921;-67
2022/10/17 03:24:09;;;;;;;;;;;14.00;95.30;;;;;;5004276;28;19918;-67
2022/10/17 03:26:35;;;;;;;;;;;14.00;95.30;;;;;;5001873;28;19918;-67
2022/10/17 03:29:00;;;;;;;;;;;14.00;95.20;;;;;;4987982;28;19928;-66
2022/10/17 03:31:26;;;;;;;;;;;14.00;95.20;;;;;;4995441;28;20729;-67
2022/10/17 03:33:52;;;;;;;;;;;14.00;95.20;;;;;;5006290;28;20020;-66
2022/10/17 03:36:18;;;;;;;;;;;14.00;95.30;;;;;;4996088;28;20007;-67
2022/10/17 03:38:43;;;;;;;;;;;14.00;95.30;;;;;;4987993;28;19921;-66
2022/10/17 03:41:09;;;;;;;;;;;14.00;95.30;;;;;;4990917;28;20047;-67
2022/10/17 03:43:34;;;;;;;;;;;14.00;95.30;;;;;;4988935;28;19918;-66
2022/10/17 03:46:00;;;;;;;;;;;14.00;95.30;;;;;;4988925;28;20524;-66
2022/10/17 03:48:27;;;;;;;;;;;14.00;95.30;;;;;;4989370;28;19921;-66
2022/10/17 03:50:59;;;;;;;;;;;14.00;95.30;;;;;;4988951;28;19914;-67
2022/10/17 03:53:24;;;;;;;;;;;14.00;95.30;;;;;;4989150;28;19913;-67
2022/10/17 03:55:50;;;;;;;;;;;14.00;95.20;;;;;;4996199;28;19918;-67
2022/10/17 03:58:15;;;;;;;;;;;14.00;95.30;;;;;;4989358;28;19917;-67
2022/10/17 04:00:40;;;;;;;;;;;14.00;95.30;;;;;;5006521;28;19913;-67
2022/10/17 04:03:06;;;;;;;;;;;14.00;95.60;;;;;;4999434;28;19914;-67
2022/10/17 04:05:31;;;;;;;;;;;14.00;95.40;;;;;;4989088;28;20398;-66
2022/10/17 04:07:57;;;;;;;;;;;14.00;95.30;;;;;;5007367;28;19936;-66
2022/10/17 04:10:22;;;;;;;;;;;14.00;95.30;;;;;;4994516;28;19929;-66
2022/10/17 04:12:48;;;;;;;;;;;14.00;95.30;;;;;;4988529;28;20267;-66
2022/10/17 04:15:14;;;;;;;;;;;14.00;95.30;;;;;;4994200;28;20616;-67
2022/10/17 04:17:39;;;;;;;;;;;14.10;95.30;;;;;;4993473;28;19918;-67
2022/10/17 04:20:05;;;;;;;;;;;14.00;95.30;;;;;;5006585;28;19909;-66
2022/10/17 04:22:31;;;;;;;;;;;14.00;95.30;;;;;;5006437;28;19976;-67
2022/10/17 04:24:56;;;;;;;;;;;14.00;95.30;;;;;;5001466;28;19921;-67
2022/10/17 04:27:22;;;;;;;;;;;14.00;95.40;;;;;;4988418;28;20260;-66
2022/10/17 04:29:47;;;;;;;;;;;14.00;95.40;;;;;;4988259;28;19914;-66
2022/10/17 04:32:13;;;;;;;;;;;14.00;95.40;;;;;;4998012;28;19924;-66
2022/10/17 04:34:38;;;;;;;;;;;14.00;95.40;;;;;;5006373;28;19940;-67
2022/10/17 04:37:03;;;;;;;;;;;14.00;95.30;;;;;;5006470;28;20012;-67
2022/10/17 04:39:29;;;;;;;;;;;14.00;95.40;;;;;;4990456;28;19968;-66
2022/10/17 04:41:55;;;;;;;;;;;14.00;95.30;;;;;;4987940;28;19920;-67
2022/10/17 04:44:21;;;;;;;;;;;14.00;95.30;;;;;;4996825;28;19941;-67
2022/10/17 04:46:46;;;;;;;;;;;14.00;95.30;;;;;;4991007;28;19959;-66
2022/10/17 04:49:12;;;;;;;;;;;14.00;95.40;;;;;;4987010;28;20566;-67
2022/10/17 04:51:37;;;;;;;;;;;14.10;95.40;;;;;;4986762;28;19960;-66
2022/10/17 04:54:03;;;;;;;;;;;14.00;95.40;;;;;;4989446;28;20382;-67
2022/10/17 04:56:29;;;;;;;;;;;14.00;95.40;;;;;;5004630;28;20040;-67
2022/10/17 04:58:55;;;;;;;;;;;14.10;95.40;;;;;;4983080;28;19949;-67
2022/10/17 05:01:21;;;;;;;;;;;14.10;95.40;;;;;;4987539;28;19924;-67
2022/10/17 05:03:47;;;;;;;;;;;14.10;95.40;;;;;;4992820;28;19925;-67
2022/10/17 05:06:13;;;;;;;;;;;14.10;95.50;;;;;;5001686;28;19927;-67
2022/10/17 05:08:39;;;;;;;;;;;14.10;95.50;;;;;;5005461;28;19919;-67
2022/10/17 05:11:04;;;;;;;;;;;14.10;95.50;;;;;;5004618;28;20008;-66
2022/10/17 05:13:30;;;;;;;;;;;14.10;95.50;;;;;;4986208;28;19914;-66
2022/10/17 05:15:59;;;;;;;;;;;14.10;95.50;;;;;;4987725;28;19946;-67
2022/10/17 05:18:25;;;;;;;;;;;14.10;95.50;;;;;;4998347;28;19976;-66
2022/10/17 05:20:51;;;;;;;;;;;14.10;95.50;;;;;;4992704;28;19918;-67
2022/10/17 05:23:16;;;;;;;;;;;14.10;95.50;;;;;;5000964;28;19921;-67
2022/10/17 05:25:42;;;;;;;;;;;14.10;95.50;;;;;;4987293;28;19918;-67
2022/10/17 05:28:07;;;;;;;;;;;14.10;95.50;;;;;;4987302;28;19913;-67
2022/10/17 05:30:33;;;;;;;;;;;14.10;95.50;;;;;;4986730;28;20497;-67
2022/10/17 05:32:58;;;;;;;;;;;14.10;95.50;;;;;;4988927;28;19917;-67
2022/10/17 05:35:24;;;;;;;;;;;14.20;95.60;;;;;;4987318;28;19922;-67
2022/10/17 05:37:49;;;;;;;;;;;14.10;95.60;;;;;;4986957;28;19918;-67
2022/10/17 05:40:15;;;;;;;;;;;14.20;95.60;;;;;;4986817;28;19967;-66
2022/10/17 05:42:44;;;;;;;;;;;14.10;95.60;;;;;;4987154;28;19914;-67
2022/10/17 05:45:10;;;;;;;;;;;14.20;95.60;;;;;;4986823;28;19968;-67
2022/10/17 05:47:35;;;;;;;;;;;14.20;95.70;;;;;;4987003;28;19922;-67
2022/10/17 05:50:01;;;;;;;;;;;14.20;95.70;;;;;;4987117;28;20024;-67
2022/10/17 05:52:26;;;;;;;;;;;14.20;95.80;;;;;;4987129;28;19914;-67
2022/10/17 05:54:52;;;;;;;;;;;14.20;95.80;;;;;;5000716;28;20714;-67
2022/10/17 05:57:17;;;;;;;;;;;14.20;95.70;;;;;;5003631;28;19913;-67
2022/10/17 05:59:43;;;;;;;;;;;14.20;95.70;;;;;;5004666;28;19920;-67
2022/10/17 06:02:10;;;;;;;;;;;14.20;95.60;;;;;;4995348;28;19960;-67
2022/10/17 06:04:36;;;;;;;;;;;14.20;95.60;;;;;;4985569;28;19914;-67
2022/10/17 06:07:02;;;;;;;;;;;14.20;95.60;;;;;;4985507;28;19914;-67
2022/10/17 06:09:28;;;;;;;;;;;14.20;95.60;;;;;;4987255;28;19921;-67
2022/10/17 06:11:53;;;;;;;;;;;14.20;95.60;;;;;;4992317;28;19992;-67
2022/10/17 06:14:18;;;;;;;;;;;14.20;95.60;;;;;;4987238;28;20302;-67
2022/10/17 06:16:44;;;;;;;;;;;14.20;95.60;;;;;;4995086;28;19924;-67
2022/10/17 06:19:10;;;;;;;;;;;14.20;95.60;;;;;;4986621;28;19921;-67
2022/10/17 06:21:37;;;;;;;;;;;14.20;95.60;;;;;;4986397;28;19913;-67
2022/10/17 06:24:03;;;;;;;;;;;14.20;95.60;;;;;;5007969;28;19914;-67
2022/10/17 06:26:28;;;;;;;;;;;14.30;95.60;;;;;;5004114;28;19917;-67
2022/10/17 06:28:54;;;;;;;;;;;14.20;95.60;;;;;;4998282;28;19915;-67
2022/10/17 06:31:19;;;;;;;;;;;14.30;95.60;;;;;;4991697;28;19940;-67
2022/10/17 06:33:45;;;;;;;;;;;14.30;95.70;;;;;;4992610;28;19924;-68
2022/10/17 06:36:12;;;;;;;;;;;14.30;95.60;;;;;;4990390;28;20560;-67
2022/10/17 06:38:37;;;;;;;;;;;14.30;95.60;;;;;;4990625;28;19943;-67
2022/10/17 06:41:07;;;;;;;;;;;14.30;95.60;;;;;;4989925;28;19910;-68
2022/10/17 06:43:32;;;;;;;;;;;14.30;95.60;;;;;;4996941;28;20000;-67
2022/10/17 06:45:58;;;;;;;;;;;14.30;95.60;;;;;;5001427;28;20573;-68
2022/10/17 06:48:23;;;;;;;;;;;14.30;95.60;;;;;;4990305;28;19913;-67
2022/10/17 06:50:49;;;;;;;;;;;14.30;95.60;;;;;;4991547;28;20365;-67
2022/10/17 06:53:14;;;;;;;;;;;14.30;95.70;;;;;;5008536;28;19913;-67
2022/10/17 06:55:41;;;;;;;;;;;14.40;95.60;;;;;;4994606;28;20657;-67
2022/10/17 06:58:07;;;;;;;;;;;14.40;95.60;;;;;;4990038;28;19914;-67
2022/10/17 07:00:32;;;;;;;;;;;14.40;95.60;;;;;;4989971;28;20577;-67
2022/10/17 07:02:58;;;;;;;;;;;14.40;95.60;;;;;;4992903;28;19914;-67
2022/10/17 07:05:23;;;;;;;;;;;14.40;95.60;;;;;;4988265;28;19920;-67
2022/10/17 07:07:49;;;;;;;;;;;14.40;95.60;;;;;;4988723;28;19918;-67
2022/10/17 07:10:14;;;;;;;;;;;14.40;95.60;;;;;;4998031;28;19975;-67
2022/10/17 07:12:40;;;;;;;;;;;14.40;95.80;;;;;;5006925;28;20263;-67
2022/10/17 07:15:05;;;;;;;;;;;14.40;95.90;;;;;;4987897;28;19940;-67
2022/10/17 07:17:31;;;;;;;;;;;14.40;95.70;;;;;;4989724;28;19921;-67
2022/10/17 07:19:56;;;;;;;;;;;14.50;95.90;;;;;;4990779;28;20457;-67
2022/10/17 07:22:22;;;;;;;;;;;14.50;95.90;;;;;;4989406;28;19914;-67
2022/10/17 07:24:47;;;;;;;;;;;14.50;95.80;;;;;;4989224;28;19913;-67
2022/10/17 07:27:13;;;;;;;;;;;14.50;95.80;;;;;;5005577;28;19917;-68
2022/10/17 07:29:39;;;;;;;;;;;14.50;95.90;;;;;;4994349;28;19960;-67
2022/10/17 07:32:07;;;;;;;;;;;14.60;95.90;;;;;;4991083;28;19920;-67
2022/10/17 07:34:36;;;;;;;;;;;14.60;95.90;;;;;;4987480;28;19909;-67
2022/10/17 07:37:01;;;;;;;;;;;14.60;96.00;;;;;;4989346;28;19918;-67
2022/10/17 07:39:27;;;;;;;;;;;14.60;96.10;;;;;;4989663;28;19914;-67
2022/10/17 07:41:53;;;;;;;;;;;14.60;96.00;;;;;;4989184;28;20001;-67
2022/10/17 07:44:18;;;;;;;;;;;14.70;96.20;;;;;;4989572;28;19918;-67
2022/10/17 07:46:44;;;;;;;;;;;14.70;96.00;;;;;;4989318;28;19914;-67
2022/10/17 07:49:09;;;;;;;;;;;14.70;96.00;;;;;;4989142;28;19952;-67
2022/10/17 07:51:35;;;;;;;;;;;14.70;96.00;;;;;;4989175;28;19914;-67
2022/10/17 07:54:00;;;;;;;;;;;14.70;96.20;;;;;;4990702;28;19918;-67
2022/10/17 07:56:28;;;;;;;;;;;14.80;96.00;;;;;;4984368;28;19922;-67
2022/10/17 07:58:54;;;;;;;;;;;14.80;96.20;;;;;;4999175;28;19910;-67
2022/10/17 08:01:19;;;;;;;;;;;14.80;96.00;;;;;;4988547;28;19924;-67
2022/10/17 08:03:47;;;;;;;;;;;14.80;96.10;;;;;;4991588;28;19922;-67
2022/10/17 08:06:13;;;;;;;;;;;14.90;96.00;;;;;;4989266;28;19914;-67
2022/10/17 08:08:38;;;;;;;;;;;14.90;96.10;;;;;;4989598;28;19909;-67
2022/10/17 08:11:05;;;;;;;;;;;14.90;96.00;;;;;;5001298;28;19917;-67
2022/10/17 08:13:30;;;;;;;;;;;14.90;95.90;;;;;;5004107;28;19914;-67
2022/10/17 08:16:00;;;;;;;;;;;15.00;96.30;;;;;;4987089;28;20342;-67
2022/10/17 08:18:25;;;;;;;;;;;15.00;96.30;;;;;;4994900;28;19914;-67
2022/10/17 08:20:51;;;;;;;;;;;15.00;96.10;;;;;;4989820;28;20640;-67
2022/10/17 08:23:16;;;;;;;;;;;15.00;96.00;;;;;;4988454;28;19920;-67
2022/10/17 08:25:42;;;;;;;;;;;15.10;96.20;;;;;;4988577;28;20363;-67
2022/10/17 08:28:07;;;;;;;;;;;15.10;96.20;;;;;;4988142;28;20013;-67
2022/10/17 08:30:33;;;;;;;;;;;15.10;96.50;;;;;;4987766;28;19910;-67
2022/10/17 08:32:58;;;;;;;;;;;15.10;96.00;;;;;;4989577;28;19942;-67
2022/10/17 08:35:24;;;;;;;;;;;15.20;96.20;;;;;;4988443;28;19968;-67
2022/10/17 08:37:49;;;;;;;;;;;15.20;96.20;;;;;;5001577;28;19921;-68
2022/10/17 08:40:25;;;;;;;;;;;15.20;96.20;;;;;;5004013;28;20004;-67
2022/10/17 08:43:14;;;;;;;;;;;15.30;96.30;;;;;;4999536;28;20593;-67
2022/10/17 08:45:55;;;;;;;;;;;15.30;96.30;;;;;;4989296;28;19960;-67
2022/10/17 08:48:23;;;;;;;;;;;15.30;96.30;;;;;;4988388;28;20374;-67
2022/10/17 08:50:54;;;;;;;;;;;15.40;96.10;;;;;;4990436;28;20535;-67
2022/10/17 08:53:22;;;;;;;;;;;15.40;96.30;;;;;;5004657;28;19931;-68
2022/10/17 08:55:49;;;;;;;;;;;15.50;96.20;;;;;;5002301;28;20383;-67
2022/10/17 08:58:26;;;;;;;;;;;15.50;96.20;;;;;;4987860;28;19946;-67
2022/10/17 09:00:52;;;;;;;;;;;15.50;96.20;;;;;;4987500;28;19918;-67
2022/10/17 09:03:53;;;;;;;;;;;15.60;96.40;;;;;;4989265;28;20338;-67
2022/10/17 09:06:19;;;;;;;;;;;15.60;96.20;;;;;;4983301;28;19921;-67
2022/10/17 09:08:53;;;;;;;;;;;15.70;96.10;;;;;;5000990;28;19921;-67
2022/10/17 09:11:41;;;;;;;;;;;15.70;96.10;;;;;;5005185;28;19968;-67
2022/10/17 09:14:25;;;;;;;;;;;15.70;96.00;;;;;;4997905;28;20009;-67
2022/10/17 09:16:53;;;;;;;;;;;15.80;96.00;;;;;;4990409;28;20466;-67
2022/10/17 09:19:21;;;;;;;;;;;15.80;96.00;;;;;;4988438;28;19918;-67
2022/10/17 09:21:56;;;;;;;;;;;15.90;96.00;;;;;;4989820;28;19920;-68
2022/10/17 09:24:30;;;;;;;;;;;15.90;96.10;;;;;;4986588;28;19921;-67
2022/10/17 09:26:56;;;;;;;;;;;16.00;96.20;;;;;;4983960;28;19913;-68
2022/10/17 09:29:23;;;;;;;;;;;16.00;95.90;;;;;;4988762;28;20382;-68
2022/10/17 09:32:11;;;;;;;;;;;16.10;96.10;;;;;;4983888;28;20597;-68
2022/10/17 09:34:37;;;;;;;;;;;16.10;96.10;;;;;;4990506;28;20366;-67
2022/10/17 09:37:06;;;;;;;;;;;16.10;96.10;;;;;;5005293;28;19924;-67
2022/10/17 09:39:32;;;;;;;;;;;16.20;96.10;;;;;;5002642;28;20558;-67
2022/10/17 09:41:59;;;;;;;;;;;16.20;95.90;;;;;;5004216;28;19914;-68
2022/10/17 09:44:28;;;;;;;;;;;16.30;95.90;;;;;;4994995;28;19914;-67
2022/10/17 09:46:54;;;;;;;;;;;16.30;95.80;;;;;;4986949;28;19914;-67
2022/10/17 09:49:25;;;;;;;;;;;16.40;95.90;;;;;;4986791;28;20310;-68
2022/10/17 09:51:50;;;;;;;;;;;16.40;95.90;;;;;;4986531;28;19953;-67
2022/10/17 09:54:16;;;;;;;;;;;16.40;95.40;;;;;;4990938;28;20047;-67
2022/10/17 09:57:01;;;;;;;;;;;16.60;95.60;;;;;;4997017;28;20718;-67
2022/10/17 09:59:34;;;;;;;;;;;16.60;95.60;;;;;;4986326;28;19918;-67
2022/10/17 10:02:07;;;;;;;;;;;16.60;95.30;;;;;;4988038;28;19913;-67
2022/10/17 10:04:32;;;;;;;;;;;16.70;95.50;;;;;;4993576;28;19913;-67
2022/10/17 10:07:02;;;;;;;;;;;16.70;95.40;;;;;;5004709;28;20558;-67
2022/10/17 10:09:32;;;;;;;;;;;16.70;95.20;;;;;;5004356;28;20004;-67
2022/10/17 10:11:59;;;;;;;;;;;16.70;95.40;;;;;;5004341;28;20349;-67
2022/10/17 10:14:29;;;;;;;;;;;16.80;95.50;;;;;;4995241;28;19917;-67
2022/10/17 10:16:54;;;;;;;;;;;16.80;95.60;;;;;;4986925;28;19976;-68
2022/10/17 10:19:25;;;;;;;;;;;16.90;95.40;;;;;;4986784;28;20391;-67
2022/10/17 10:21:54;;;;;;;;;;;16.80;95.40;;;;;;4987821;28;19918;-68
2022/10/17 10:24:19;;;;;;;;;;;16.90;95.50;;;;;;5004870;28;19921;-67
2022/10/17 10:26:45;;;;;;;;;;;16.90;95.50;;;;;;5004652;28;19917;-68
2022/10/17 10:29:19;;;;;;;;;;;16.90;95.70;;;;;;5004857;28;19913;-68
2022/10/17 10:31:45;;;;;;;;;;;16.90;95.80;;;;;;5003071;28;20044;-68
2022/10/17 10:34:24;;;;;;;;;;;16.90;95.90;;;;;;4986723;28;20016;-68
2022/10/17 10:36:56;;;;;;;;;;;17.00;95.70;;;;;;4995683;28;20020;-68
2022/10/17 10:39:24;;;;;;;;;;;17.00;95.70;;;;;;5002164;28;19913;-67
2022/10/17 10:41:50;;;;;;;;;;;17.00;95.60;;;;;;5000774;28;20040;-67
2022/10/17 10:44:17;;;;;;;;;;;17.00;95.70;;;;;;4994519;28;19945;-67
2022/10/17 10:46:43;;;;;;;;;;;17.00;95.70;;;;;;4993552;28;19956;-68
2022/10/17 10:49:27;;;;;;;;;;;17.10;95.80;;;;;;4992457;28;19967;-68
2022/10/17 10:51:53;;;;;;;;;;;17.10;96.00;;;;;;4986420;28;19914;-68
2022/10/17 10:54:23;;;;;;;;;;;17.10;95.90;;;;;;5000874;28;19917;-67
2022/10/17 10:56:52;;;;;;;;;;;17.20;95.80;;;;;;5004487;28;19924;-67
2022/10/17 10:59:18;;;;;;;;;;;17.20;95.80;;;;;;5004190;28;19923;-67
2022/10/17 11:01:52;;;;;;;;;;;17.20;95.70;;;;;;5004076;28;19913;-67
2022/10/17 11:04:28;;;;;;;;;;;17.30;95.80;;;;;;4998499;28;19969;-68
2022/10/17 11:07:03;;;;;;;;;;;17.30;95.60;;;;;;4986522;28;19941;-68
2022/10/17 11:09:35;;;;;;;;;;;17.30;96.00;;;;;;5005175;28;19917;-67
2022/10/17 11:12:05;;;;;;;;;;;17.30;95.60;;;;;;5007650;28;19913;-68
2022/10/17 11:14:46;;;;;;;;;;;17.30;95.70;;;;;;4997014;28;19913;-68
2022/10/17 11:17:17;;;;;;;;;;;17.30;95.80;;;;;;4989539;28;19921;-67
2022/10/17 11:19:42;;;;;;;;;;;17.30;95.80;;;;;;4989878;28;20500;-68
2022/10/17 11:22:15;;;;;;;;;;;17.30;95.80;;;;;;4989525;28;20020;-68
2022/10/17 11:24:55;;;;;;;;;;;17.40;95.90;;;;;;4989524;28;19921;-67
2022/10/17 11:27:24;;;;;;;;;;;17.40;95.70;;;;;;4989205;28;20282;-67
2022/10/17 11:29:50;;;;;;;;;;;17.40;96.00;;;;;;4989834;28;19983;-67
2022/10/17 11:32:29;;;;;;;;;;;17.40;96.00;;;;;;4990619;28;20294;-67
2022/10/17 11:35:01;;;;;;;;;;;17.40;96.10;;;;;;4989243;28;20366;-67
2022/10/17 11:37:29;;;;;;;;;;;17.50;95.90;;;;;;4989388;28;19924;-67
2022/10/17 11:40:14;;;;;;;;;;;17.50;95.80;;;;;;4989625;28;19913;-67
2022/10/17 11:42:44;;;;;;;;;;;17.50;95.90;;;;;;4987702;28;20347;-68
2022/10/17 11:45:14;;;;;;;;;;;17.50;95.90;;;;;;4988957;28;19917;-67
2022/10/17 11:47:48;;;;;;;;;;;17.60;95.60;;;;;;4987850;28;20125;-68
2022/10/17 11:50:17;;;;;;;;;;;17.60;95.70;;;;;;4987345;28;19910;-68
2022/10/17 11:53:00;;;;;;;;;;;17.60;95.50;;;;;;4992618;28;20072;-68
2022/10/17 11:55:27;;;;;;;;;;;17.60;95.50;;;;;;5006234;28;20506;-68
2022/10/17 11:57:58;;;;;;;;;;;17.70;95.50;;;;;;5006171;28;19914;-68
2022/10/17 12:00:23;;;;;;;;;;;17.70;95.20;;;;;;5006178;28;19914;-68
2022/10/17 12:02:49;;;;;;;;;;;17.70;95.00;;;;;;4995760;28;19921;-68
2022/10/17 12:05:17;;;;;;;;;;;17.80;95.20;;;;;;4987103;28;20358;-68
2022/10/17 12:07:49;;;;;;;;;;;17.80;95.10;;;;;;4990546;28;19917;-67
2022/10/17 12:10:22;;;;;;;;;;;17.80;95.40;;;;;;5005993;28;20365;-68
2022/10/17 12:12:48;;;;;;;;;;;17.80;95.20;;;;;;5006040;28;20259;-67
2022/10/17 12:15:23;;;;;;;;;;;17.80;95.40;;;;;;4989561;28;19921;-67
2022/10/17 12:17:59;;;;;;;;;;;17.80;95.70;;;;;;4999544;28;19913;-68
2022/10/17 12:20:35;;;;;;;;;;;17.80;95.60;;;;;;4997146;28;20026;-68
2022/10/17 12:23:09;;;;;;;;;;;17.80;95.60;;;;;;5005539;28;20117;-68
2022/10/17 12:25:38;;;;;;;;;;;17.80;96.00;;;;;;5001507;28;19921;-68
2022/10/17 12:28:06;;;;;;;;;;;17.80;95.90;;;;;;5005463;28;19996;-68
2022/10/17 12:30:33;;;;;;;;;;;17.80;95.80;;;;;;5005330;28;19913;-68
2022/10/17 12:33:21;;;;;;;;;;;17.80;95.80;;;;;;4998564;28;20719;-68
2022/10/17 12:35:48;;;;;;;;;;;17.80;96.00;;;;;;4984987;28;20467;-68
2022/10/17 12:38:16;;;;;;;;;;;17.80;95.50;;;;;;4994931;28;19957;-68
2022/10/17 12:40:42;;;;;;;;;;;17.80;95.80;;;;;;5002829;28;19920;-69
2022/10/17 12:43:14;;;;;;;;;;;17.80;95.70;;;;;;4999347;28;19914;-68
2022/10/17 12:45:47;;;;;;;;;;;17.80;95.60;;;;;;4986729;28;20022;-68
2022/10/17 12:48:32;;;;;;;;;;;17.80;95.60;;;;;;4997556;28;19948;-68
2022/10/17 12:51:10;;;;;;;;;;;17.80;95.70;;;;;;5000966;28;19924;-68
2022/10/17 12:53:47;;;;;;;;;;;17.80;95.80;;;;;;4986414;28;20311;-69
2022/10/17 12:56:13;;;;;;;;;;;17.80;95.90;;;;;;4996642;28;19944;-70
2022/10/17 12:58:44;;;;;;;;;;;17.80;95.90;;;;;;5004807;28;19921;-68
2022/10/17 13:01:15;;;;;;;;;;;17.80;96.00;;;;;;5002896;28;19917;-68
2022/10/17 13:03:42;;;;;;;;;;;17.80;96.00;;;;;;4988916;28;20000;-68
2022/10/17 13:06:14;;;;;;;;;;;17.80;96.00;;;;;;4985468;28;19910;-68
2022/10/17 13:08:46;;;;;;;;;;;17.80;95.90;;;;;;4987378;28;20005;-67
2022/10/17 13:11:12;;;;;;;;;;;17.70;95.80;;;;;;4990290;28;20606;-68
2022/10/17 13:13:43;;;;;;;;;;;17.70;95.80;;;;;;4998673;28;20331;-68
2022/10/17 13:16:29;;;;;;;;;;;17.70;95.70;;;;;;5013662;28;20201;-68
2022/10/17 13:18:55;;;;;;;;;;;17.70;95.60;;;;;;4987126;28;20370;-68
2022/10/17 13:21:21;;;;;;;;;;;17.70;95.70;;;;;;4994137;28;19918;-67
2022/10/17 13:23:49;;;;;;;;;;;17.70;95.80;;;;;;5005817;28;20447;-67
2022/10/17 13:26:18;;;;;;;;;;;17.70;95.90;;;;;;5005223;28;19916;-68
2022/10/17 13:28:45;;;;;;;;;;;17.70;96.00;;;;;;5004969;28;19998;-68
2022/10/17 13:31:25;;;;;;;;;;;17.70;95.90;;;;;;5004798;28;19913;-68
2022/10/17 13:33:54;;;;;;;;;;;17.70;95.60;;;;;;4990266;28;20445;-68
2022/10/17 13:36:19;;;;;;;;;;;17.70;95.80;;;;;;5001718;28;20392;-68
2022/10/17 13:38:45;;;;;;;;;;;17.70;95.80;;;;;;5005143;28;19952;-68
2022/10/17 13:41:15;;;;;;;;;;;17.70;96.00;;;;;;5000639;28;19913;-68
2022/10/17 13:43:40;;;;;;;;;;;17.70;95.90;;;;;;4984560;28;20585;-68
2022/10/17 13:46:08;;;;;;;;;;;17.70;95.80;;;;;;4987144;28;19946;-68
2022/10/17 13:48:35;;;;;;;;;;;17.70;95.80;;;;;;4997196;28;19944;-68
2022/10/17 13:51:01;;;;;;;;;;;17.70;95.80;;;;;;4986296;28;19922;-68
2022/10/17 13:53:31;;;;;;;;;;;17.70;95.60;;;;;;4985440;28;20005;-68
2022/10/17 13:55:58;;;;;;;;;;;17.70;95.50;;;;;;5018395;28;19917;-67
2022/10/17 13:58:24;;;;;;;;;;;17.70;95.50;;;;;;5004260;28;20008;-68
2022/10/17 14:00:51;;;;;;;;;;;17.70;95.50;;;;;;5004426;28;20020;-68
2022/10/17 14:03:18;;;;;;;;;;;17.70;95.50;;;;;;4992930;28;19914;-67
2022/10/17 14:06:02;;;;;;;;;;;17.60;95.40;;;;;;4997525;28;20362;-68
2022/10/17 14:08:28;;;;;;;;;;;17.60;95.40;;;;;;5004299;28;19921;-67
2022/10/17 14:10:54;;;;;;;;;;;17.60;95.50;;;;;;5003780;28;19932;-68
2022/10/17 14:13:24;;;;;;;;;;;17.60;95.60;;;;;;5002190;28;19913;-68
2022/10/17 14:15:50;;;;;;;;;;;17.60;95.70;;;;;;4985927;28;19921;-68
2022/10/17 14:18:18;;;;;;;;;;;17.60;95.70;;;;;;4984129;28;19975;-68
2022/10/17 14:20:47;;;;;;;;;;;17.60;95.60;;;;;;4988788;28;20328;-68
2022/10/17 14:23:31;;;;;;;;;;;17.60;95.70;;;;;;4990462;28;19910;-68
2022/10/17 14:26:23;;;;;;;;;;;17.60;95.60;;;;;;4987235;28;19922;-68